sensor_id;sensor_type;location;lat;lon;timestamp;P1;durP1;ratioP1;P2;durP2;ratioP2
69890;SDS011;57170;43.964;21.262;2023-02-22T00:01:09;25.38;;;19.55;;
69890;SDS011;57170;43.964;21.262;2023-02-22T00:03:51;34.45;;;21.63;;
69890;SDS011;57170;43.964;21.262;2023-02-22T00:06:18;36.63;;;23.83;;
69890;SDS011;57170;43.964;21.262;2023-02-22T00:08:45;37.63;;;22.35;;
69890;SDS011;57170;43.964;21.262;2023-02-22T00:11:11;29.33;;;20.58;;
69890;SDS011;57170;43.964;21.262;2023-02-22T00:13:38;29.90;;;19.83;;
69890;SDS011;57170;43.964;21.262;2023-02-22T00:16:08;28.15;;;19.42;;
69890;SDS011;57170;43.964;21.262;2023-02-22T00:18:37;30.17;;;21.17;;
69890;SDS011;57170;43.964;21.262;2023-02-22T00:21:03;30.38;;;20.10;;
69890;SDS011;57170;43.964;21.262;2023-02-22T00:23:29;31.40;;;19.83;;
69890;SDS011;57170;43.964;21.262;2023-02-22T00:25:56;34.65;;;23.90;;
69890;SDS011;57170;43.964;21.262;2023-02-22T00:28:23;37.60;;;22.67;;
69890;SDS011;57170;43.964;21.262;2023-02-22T00:30:49;47.38;;;29.35;;
69890;SDS011;57170;43.964;21.262;2023-02-22T00:33:15;48.38;;;31.27;;
69890;SDS011;57170;43.964;21.262;2023-02-22T00:35:42;37.92;;;27.60;;
69890;SDS011;57170;43.964;21.262;2023-02-22T00:38:10;65.90;;;35.85;;
69890;SDS011;57170;43.964;21.262;2023-02-22T00:40:36;59.40;;;34.70;;
69890;SDS011;57170;43.964;21.262;2023-02-22T00:43:04;55.72;;;35.50;;
69890;SDS011;57170;43.964;21.262;2023-02-22T00:45:31;44.70;;;28.75;;
69890;SDS011;57170;43.964;21.262;2023-02-22T00:47:58;43.10;;;28.90;;
69890;SDS011;57170;43.964;21.262;2023-02-22T00:50:25;38.63;;;25.85;;
69890;SDS011;57170;43.964;21.262;2023-02-22T00:52:52;37.83;;;22.20;;
69890;SDS011;57170;43.964;21.262;2023-02-22T00:55:20;30.35;;;19.70;;
69890;SDS011;57170;43.964;21.262;2023-02-22T00:57:46;32.72;;;20.00;;
69890;SDS011;57170;43.964;21.262;2023-02-22T01:00:15;25.92;;;19.08;;
69890;SDS011;57170;43.964;21.262;2023-02-22T01:02:42;31.35;;;19.05;;
69890;SDS011;57170;43.964;21.262;2023-02-22T01:05:09;26.35;;;17.48;;
69890;SDS011;57170;43.964;21.262;2023-02-22T01:07:39;29.30;;;18.52;;
69890;SDS011;57170;43.964;21.262;2023-02-22T01:10:06;20.95;;;17.02;;
69890;SDS011;57170;43.964;21.262;2023-02-22T01:12:33;26.50;;;19.30;;
69890;SDS011;57170;43.964;21.262;2023-02-22T01:14:59;24.45;;;17.17;;
69890;SDS011;57170;43.964;21.262;2023-02-22T01:17:25;26.05;;;17.13;;
69890;SDS011;57170;43.964;21.262;2023-02-22T01:19:52;21.58;;;15.95;;
69890;SDS011;57170;43.964;21.262;2023-02-22T01:22:19;24.33;;;17.10;;
69890;SDS011;57170;43.964;21.262;2023-02-22T01:24:46;21.90;;;16.42;;
69890;SDS011;57170;43.964;21.262;2023-02-22T01:27:12;23.10;;;17.15;;
69890;SDS011;57170;43.964;21.262;2023-02-22T01:29:38;25.63;;;18.15;;
69890;SDS011;57170;43.964;21.262;2023-02-22T01:32:05;24.45;;;16.23;;
69890;SDS011;57170;43.964;21.262;2023-02-22T01:34:31;32.45;;;19.42;;
69890;SDS011;57170;43.964;21.262;2023-02-22T01:36:57;22.92;;;17.23;;
69890;SDS011;57170;43.964;21.262;2023-02-22T01:39:24;26.10;;;17.73;;
69890;SDS011;57170;43.964;21.262;2023-02-22T01:41:50;30.77;;;18.40;;
69890;SDS011;57170;43.964;21.262;2023-02-22T01:44:32;26.95;;;18.38;;
69890;SDS011;57170;43.964;21.262;2023-02-22T01:46:59;22.20;;;16.42;;
69890;SDS011;57170;43.964;21.262;2023-02-22T01:49:36;27.00;;;17.10;;
69890;SDS011;57170;43.964;21.262;2023-02-22T01:52:04;38.08;;;23.27;;
69890;SDS011;57170;43.964;21.262;2023-02-22T01:54:42;25.52;;;16.48;;
69890;SDS011;57170;43.964;21.262;2023-02-22T01:57:15;27.52;;;16.95;;
69890;SDS011;57170;43.964;21.262;2023-02-22T01:59:43;27.00;;;18.20;;
69890;SDS011;57170;43.964;21.262;2023-02-22T02:02:11;29.10;;;19.75;;
69890;SDS011;57170;43.964;21.262;2023-02-22T02:04:38;27.30;;;18.80;;
69890;SDS011;57170;43.964;21.262;2023-02-22T02:07:06;27.67;;;18.70;;
69890;SDS011;57170;43.964;21.262;2023-02-22T02:12:06;27.65;;;18.23;;
69890;SDS011;57170;43.964;21.262;2023-02-22T02:14:33;41.63;;;27.30;;
69890;SDS011;57170;43.964;21.262;2023-02-22T02:17:04;38.78;;;23.42;;
69890;SDS011;57170;43.964;21.262;2023-02-22T02:22:12;37.13;;;24.83;;
69890;SDS011;57170;43.964;21.262;2023-02-22T02:27:13;46.85;;;25.58;;
69890;SDS011;57170;43.964;21.262;2023-02-22T02:35:03;42.80;;;25.23;;
69890;SDS011;57170;43.964;21.262;2023-02-22T02:37:35;33.45;;;24.42;;
69890;SDS011;57170;43.964;21.262;2023-02-22T02:42:35;42.95;;;25.48;;
69890;SDS011;57170;43.964;21.262;2023-02-22T02:45:07;40.27;;;25.20;;
69890;SDS011;57170;43.964;21.262;2023-02-22T02:47:36;39.58;;;24.38;;
69890;SDS011;57170;43.964;21.262;2023-02-22T02:50:05;30.17;;;20.45;;
69890;SDS011;57170;43.964;21.262;2023-02-22T02:52:33;35.00;;;20.85;;
69890;SDS011;57170;43.964;21.262;2023-02-22T02:55:01;30.13;;;19.13;;
69890;SDS011;57170;43.964;21.262;2023-02-22T02:57:28;23.58;;;16.10;;
69890;SDS011;57170;43.964;21.262;2023-02-22T02:59:55;26.77;;;15.63;;
69890;SDS011;57170;43.964;21.262;2023-02-22T03:12:44;25.95;;;15.48;;
69890;SDS011;57170;43.964;21.262;2023-02-22T03:15:17;24.35;;;15.82;;
69890;SDS011;57170;43.964;21.262;2023-02-22T03:20:14;19.80;;;14.77;;
69890;SDS011;57170;43.964;21.262;2023-02-22T03:22:47;21.98;;;15.45;;
69890;SDS011;57170;43.964;21.262;2023-02-22T03:25:23;22.55;;;16.27;;
69890;SDS011;57170;43.964;21.262;2023-02-22T03:27:53;27.30;;;14.18;;
69890;SDS011;57170;43.964;21.262;2023-02-22T03:30:25;25.67;;;16.70;;
69890;SDS011;57170;43.964;21.262;2023-02-22T03:32:57;23.48;;;15.60;;
69890;SDS011;57170;43.964;21.262;2023-02-22T03:35:25;24.23;;;15.40;;
69890;SDS011;57170;43.964;21.262;2023-02-22T03:37:56;26.63;;;17.48;;
69890;SDS011;57170;43.964;21.262;2023-02-22T03:40:25;23.98;;;14.32;;
69890;SDS011;57170;43.964;21.262;2023-02-22T03:42:53;23.33;;;16.38;;
69890;SDS011;57170;43.964;21.262;2023-02-22T03:45:23;22.13;;;14.55;;
69890;SDS011;57170;43.964;21.262;2023-02-22T03:48:02;24.30;;;16.20;;
69890;SDS011;57170;43.964;21.262;2023-02-22T03:50:32;24.35;;;16.35;;
69890;SDS011;57170;43.964;21.262;2023-02-22T03:52:59;26.85;;;14.98;;
69890;SDS011;57170;43.964;21.262;2023-02-22T03:55:25;26.73;;;15.48;;
69890;SDS011;57170;43.964;21.262;2023-02-22T03:57:59;21.42;;;15.30;;
69890;SDS011;57170;43.964;21.262;2023-02-22T04:00:29;27.90;;;15.77;;
69890;SDS011;57170;43.964;21.262;2023-02-22T04:02:56;18.73;;;13.07;;
69890;SDS011;57170;43.964;21.262;2023-02-22T04:05:23;21.92;;;15.98;;
69890;SDS011;57170;43.964;21.262;2023-02-22T04:07:53;18.67;;;13.73;;
69890;SDS011;57170;43.964;21.262;2023-02-22T04:10:19;27.20;;;15.13;;
69890;SDS011;57170;43.964;21.262;2023-02-22T04:12:46;22.13;;;16.13;;
69890;SDS011;57170;43.964;21.262;2023-02-22T04:15:17;23.40;;;15.57;;
69890;SDS011;57170;43.964;21.262;2023-02-22T04:17:44;24.50;;;15.38;;
69890;SDS011;57170;43.964;21.262;2023-02-22T04:20:10;26.95;;;16.08;;
69890;SDS011;57170;43.964;21.262;2023-02-22T04:22:38;24.33;;;16.08;;
69890;SDS011;57170;43.964;21.262;2023-02-22T04:25:04;26.88;;;16.13;;
69890;SDS011;57170;43.964;21.262;2023-02-22T04:27:30;27.55;;;14.82;;
69890;SDS011;57170;43.964;21.262;2023-02-22T04:29:56;28.10;;;17.15;;
69890;SDS011;57170;43.964;21.262;2023-02-22T04:32:22;25.35;;;15.25;;
69890;SDS011;57170;43.964;21.262;2023-02-22T04:34:48;27.45;;;17.50;;
69890;SDS011;57170;43.964;21.262;2023-02-22T04:37:14;21.58;;;15.95;;
69890;SDS011;57170;43.964;21.262;2023-02-22T04:39:40;33.72;;;20.42;;
69890;SDS011;57170;43.964;21.262;2023-02-22T04:42:06;30.20;;;22.73;;
69890;SDS011;57170;43.964;21.262;2023-02-22T04:44:32;38.67;;;28.15;;
69890;SDS011;57170;43.964;21.262;2023-02-22T04:46:59;43.92;;;33.97;;
69890;SDS011;57170;43.964;21.262;2023-02-22T04:49:25;43.85;;;30.25;;
69890;SDS011;57170;43.964;21.262;2023-02-22T04:51:51;31.73;;;21.77;;
69890;SDS011;57170;43.964;21.262;2023-02-22T04:54:17;35.90;;;22.75;;
69890;SDS011;57170;43.964;21.262;2023-02-22T04:56:43;33.53;;;21.60;;
69890;SDS011;57170;43.964;21.262;2023-02-22T04:59:09;29.55;;;21.33;;
69890;SDS011;57170;43.964;21.262;2023-02-22T05:01:36;27.40;;;20.77;;
69890;SDS011;57170;43.964;21.262;2023-02-22T05:04:02;26.05;;;22.50;;
69890;SDS011;57170;43.964;21.262;2023-02-22T05:06:28;31.05;;;21.70;;
69890;SDS011;57170;43.964;21.262;2023-02-22T05:08:54;30.98;;;24.67;;
69890;SDS011;57170;43.964;21.262;2023-02-22T05:11:20;34.13;;;24.60;;
69890;SDS011;57170;43.964;21.262;2023-02-22T05:13:47;36.00;;;25.33;;
69890;SDS011;57170;43.964;21.262;2023-02-22T05:16:13;32.25;;;24.30;;
69890;SDS011;57170;43.964;21.262;2023-02-22T05:18:39;42.25;;;27.85;;
69890;SDS011;57170;43.964;21.262;2023-02-22T05:21:05;49.75;;;29.38;;
69890;SDS011;57170;43.964;21.262;2023-02-22T05:23:32;38.00;;;23.80;;
69890;SDS011;57170;43.964;21.262;2023-02-22T05:25:58;31.20;;;22.58;;
69890;SDS011;57170;43.964;21.262;2023-02-22T05:28:24;32.17;;;22.63;;
69890;SDS011;57170;43.964;21.262;2023-02-22T05:30:50;46.35;;;23.73;;
69890;SDS011;57170;43.964;21.262;2023-02-22T05:33:16;28.95;;;20.60;;
69890;SDS011;57170;43.964;21.262;2023-02-22T05:35:42;52.17;;;30.60;;
69890;SDS011;57170;43.964;21.262;2023-02-22T05:38:12;51.25;;;35.40;;
69890;SDS011;57170;43.964;21.262;2023-02-22T05:40:39;90.82;;;56.20;;
69890;SDS011;57170;43.964;21.262;2023-02-22T05:43:05;66.35;;;40.60;;
69890;SDS011;57170;43.964;21.262;2023-02-22T05:45:31;67.70;;;46.53;;
69890;SDS011;57170;43.964;21.262;2023-02-22T05:47:57;63.72;;;40.20;;
69890;SDS011;57170;43.964;21.262;2023-02-22T05:50:24;67.75;;;43.38;;
69890;SDS011;57170;43.964;21.262;2023-02-22T05:52:50;57.90;;;38.17;;
69890;SDS011;57170;43.964;21.262;2023-02-22T05:55:17;41.10;;;25.30;;
69890;SDS011;57170;43.964;21.262;2023-02-22T05:57:44;35.35;;;20.02;;
69890;SDS011;57170;43.964;21.262;2023-02-22T06:00:14;28.17;;;18.00;;
69890;SDS011;57170;43.964;21.262;2023-02-22T06:02:41;27.95;;;19.00;;
69890;SDS011;57170;43.964;21.262;2023-02-22T06:05:07;25.85;;;18.25;;
69890;SDS011;57170;43.964;21.262;2023-02-22T06:07:33;39.50;;;26.10;;
69890;SDS011;57170;43.964;21.262;2023-02-22T06:09:59;34.80;;;24.60;;
69890;SDS011;57170;43.964;21.262;2023-02-22T06:12:25;59.10;;;38.85;;
69890;SDS011;57170;43.964;21.262;2023-02-22T06:14:51;80.05;;;49.70;;
69890;SDS011;57170;43.964;21.262;2023-02-22T06:17:17;107.63;;;78.90;;
69890;SDS011;57170;43.964;21.262;2023-02-22T06:19:43;92.05;;;59.55;;
69890;SDS011;57170;43.964;21.262;2023-02-22T06:22:17;49.30;;;33.22;;
69890;SDS011;57170;43.964;21.262;2023-02-22T06:24:43;43.08;;;34.13;;
69890;SDS011;57170;43.964;21.262;2023-02-22T06:27:09;56.40;;;46.63;;
69890;SDS011;57170;43.964;21.262;2023-02-22T06:29:35;63.20;;;48.13;;
69890;SDS011;57170;43.964;21.262;2023-02-22T06:32:01;78.05;;;56.42;;
69890;SDS011;57170;43.964;21.262;2023-02-22T06:34:27;68.28;;;49.92;;
69890;SDS011;57170;43.964;21.262;2023-02-22T06:36:53;50.70;;;33.13;;
69890;SDS011;57170;43.964;21.262;2023-02-22T06:39:19;38.60;;;23.83;;
69890;SDS011;57170;43.964;21.262;2023-02-22T06:41:45;37.80;;;26.65;;
69890;SDS011;57170;43.964;21.262;2023-02-22T06:44:13;33.95;;;24.80;;
69890;SDS011;57170;43.964;21.262;2023-02-22T06:46:39;31.60;;;27.08;;
69890;SDS011;57170;43.964;21.262;2023-02-22T06:49:05;31.95;;;27.27;;
69890;SDS011;57170;43.964;21.262;2023-02-22T06:51:34;42.58;;;34.05;;
69890;SDS011;57170;43.964;21.262;2023-02-22T06:54:01;29.60;;;24.30;;
69890;SDS011;57170;43.964;21.262;2023-02-22T06:56:28;22.90;;;18.60;;
69890;SDS011;57170;43.964;21.262;2023-02-22T06:58:54;26.45;;;19.60;;
69890;SDS011;57170;43.964;21.262;2023-02-22T07:01:20;25.60;;;21.35;;
69890;SDS011;57170;43.964;21.262;2023-02-22T07:03:49;24.10;;;20.77;;
69890;SDS011;57170;43.964;21.262;2023-02-22T07:06:16;23.30;;;16.48;;
69890;SDS011;57170;43.964;21.262;2023-02-22T07:08:42;23.10;;;18.55;;
69890;SDS011;57170;43.964;21.262;2023-02-22T07:11:08;22.77;;;18.75;;
69890;SDS011;57170;43.964;21.262;2023-02-22T07:13:34;22.58;;;17.95;;
69890;SDS011;57170;43.964;21.262;2023-02-22T07:16:00;24.23;;;18.08;;
69890;SDS011;57170;43.964;21.262;2023-02-22T07:18:26;25.75;;;18.80;;
69890;SDS011;57170;43.964;21.262;2023-02-22T07:20:52;23.98;;;18.73;;
69890;SDS011;57170;43.964;21.262;2023-02-22T07:23:18;19.23;;;17.10;;
69890;SDS011;57170;43.964;21.262;2023-02-22T07:25:45;22.50;;;17.50;;
69890;SDS011;57170;43.964;21.262;2023-02-22T07:28:11;20.08;;;17.83;;
69890;SDS011;57170;43.964;21.262;2023-02-22T07:30:37;20.17;;;17.45;;
69890;SDS011;57170;43.964;21.262;2023-02-22T07:33:05;22.85;;;17.80;;
